sensor_id;sensor_type;location;lat;lon;timestamp;temperature;humidity
78704;SHT31;68034;51.966;5.676;2023-12-20T00:00:05;9.3;80.8
78704;SHT31;68034;51.966;5.676;2023-12-20T00:02:34;9.3;81.0
78704;SHT31;68034;51.966;5.676;2023-12-20T00:05:15;9.4;80.7
78704;SHT31;68034;51.966;5.676;2023-12-20T00:07:44;9.5;80.1
78704;SHT31;68034;51.966;5.676;2023-12-20T00:10:14;9.5;79.8
78704;SHT31;68034;51.966;5.676;2023-12-20T00:12:43;9.5;79.8
78704;SHT31;68034;51.966;5.676;2023-12-20T00:15:12;9.5;79.2
78704;SHT31;68034;51.966;5.676;2023-12-20T00:17:41;9.5;78.9
78704;SHT31;68034;51.966;5.676;2023-12-20T00:20:10;9.5;78.8
78704;SHT31;68034;51.966;5.676;2023-12-20T00:22:39;9.5;78.7
78704;SHT31;68034;51.966;5.676;2023-12-20T00:25:10;9.5;78.6
78704;SHT31;68034;51.966;5.676;2023-12-20T00:27:38;9.4;78.5
78704;SHT31;68034;51.966;5.676;2023-12-20T00:30:09;9.4;78.4
78704;SHT31;68034;51.966;5.676;2023-12-20T00:32:38;9.4;78.6
78704;SHT31;68034;51.966;5.676;2023-12-20T00:35:11;9.3;78.8
78704;SHT31;68034;51.966;5.676;2023-12-20T00:37:40;9.3;78.7
78704;SHT31;68034;51.966;5.676;2023-12-20T00:40:10;9.3;78.7
78704;SHT31;68034;51.966;5.676;2023-12-20T00:42:39;9.2;78.7
78704;SHT31;68034;51.966;5.676;2023-12-20T00:45:08;9.2;78.7
78704;SHT31;68034;51.966;5.676;2023-12-20T00:47:37;9.2;78.8
78704;SHT31;68034;51.966;5.676;2023-12-20T00:50:06;9.1;78.9
78704;SHT31;68034;51.966;5.676;2023-12-20T00:52:35;9.1;78.9
78704;SHT31;68034;51.966;5.676;2023-12-20T00:55:04;9.1;79.0
78704;SHT31;68034;51.966;5.676;2023-12-20T00:57:34;9.0;78.8
78704;SHT31;68034;51.966;5.676;2023-12-20T01:00:03;9.0;79.0
78704;SHT31;68034;51.966;5.676;2023-12-20T01:02:32;9.0;79.1
78704;SHT31;68034;51.966;5.676;2023-12-20T01:05:01;8.9;79.2
78704;SHT31;68034;51.966;5.676;2023-12-20T01:07:29;8.9;79.4
78704;SHT31;68034;51.966;5.676;2023-12-20T01:10:00;8.9;79.5
78704;SHT31;68034;51.966;5.676;2023-12-20T01:12:29;8.9;79.5
78704;SHT31;68034;51.966;5.676;2023-12-20T01:14:57;8.8;79.6
78704;SHT31;68034;51.966;5.676;2023-12-20T01:17:26;8.8;79.7
78704;SHT31;68034;51.966;5.676;2023-12-20T01:19:55;8.8;79.5
78704;SHT31;68034;51.966;5.676;2023-12-20T01:22:24;8.8;79.7
78704;SHT31;68034;51.966;5.676;2023-12-20T01:24:53;8.8;79.7
78704;SHT31;68034;51.966;5.676;2023-12-20T01:27:22;8.7;79.5
78704;SHT31;68034;51.966;5.676;2023-12-20T01:29:52;8.7;79.6
78704;SHT31;68034;51.966;5.676;2023-12-20T01:32:21;8.7;79.6
78704;SHT31;68034;51.966;5.676;2023-12-20T01:34:50;8.7;79.5
78704;SHT31;68034;51.966;5.676;2023-12-20T01:37:19;8.7;79.4
78704;SHT31;68034;51.966;5.676;2023-12-20T01:39:50;8.7;79.5
78704;SHT31;68034;51.966;5.676;2023-12-20T01:42:18;8.7;79.4
78704;SHT31;68034;51.966;5.676;2023-12-20T01:44:48;8.7;79.5
78704;SHT31;68034;51.966;5.676;2023-12-20T01:47:17;8.6;79.5
78704;SHT31;68034;51.966;5.676;2023-12-20T01:49:46;8.6;79.5
78704;SHT31;68034;51.966;5.676;2023-12-20T01:52:21;8.7;79.8
78704;SHT31;68034;51.966;5.676;2023-12-20T01:54:57;8.8;80.1
78704;SHT31;68034;51.966;5.676;2023-12-20T01:57:33;8.9;79.7
78704;SHT31;68034;51.966;5.676;2023-12-20T02:00:05;9.1;79.5
78704;SHT31;68034;51.966;5.676;2023-12-20T02:02:47;9.3;79.2
78704;SHT31;68034;51.966;5.676;2023-12-20T02:05:28;9.4;78.9
78704;SHT31;68034;51.966;5.676;2023-12-20T02:08:01;9.5;78.3
78704;SHT31;68034;51.966;5.676;2023-12-20T02:10:35;9.7;77.8
78704;SHT31;68034;51.966;5.676;2023-12-20T02:13:04;9.8;77.3
78704;SHT31;68034;51.966;5.676;2023-12-20T02:15:33;9.9;76.6
78704;SHT31;68034;51.966;5.676;2023-12-20T02:18:03;9.9;75.9
78704;SHT31;68034;51.966;5.676;2023-12-20T02:20:33;9.9;75.8
78704;SHT31;68034;51.966;5.676;2023-12-20T02:23:02;10.0;75.4
78704;SHT31;68034;51.966;5.676;2023-12-20T02:25:30;10.0;75.2
78704;SHT31;68034;51.966;5.676;2023-12-20T02:28:02;10.0;74.9
78704;SHT31;68034;51.966;5.676;2023-12-20T02:30:31;10.0;74.9
78704;SHT31;68034;51.966;5.676;2023-12-20T02:33:01;10.0;74.8
78704;SHT31;68034;51.966;5.676;2023-12-20T02:35:32;9.9;74.7
78704;SHT31;68034;51.966;5.676;2023-12-20T02:38:00;9.9;74.5
78704;SHT31;68034;51.966;5.676;2023-12-20T02:40:29;9.8;74.8
78704;SHT31;68034;51.966;5.676;2023-12-20T02:42:58;9.7;75.2
78704;SHT31;68034;51.966;5.676;2023-12-20T02:45:27;9.6;75.8
78704;SHT31;68034;51.966;5.676;2023-12-20T02:47:55;9.5;75.8
78704;SHT31;68034;51.966;5.676;2023-12-20T02:50:24;9.4;76.0
78704;SHT31;68034;51.966;5.676;2023-12-20T02:52:53;9.4;76.3
78704;SHT31;68034;51.966;5.676;2023-12-20T02:55:22;9.3;76.5
78704;SHT31;68034;51.966;5.676;2023-12-20T02:57:52;9.2;76.7
78704;SHT31;68034;51.966;5.676;2023-12-20T03:00:21;9.2;76.6
78704;SHT31;68034;51.966;5.676;2023-12-20T03:02:50;9.1;76.7
78704;SHT31;68034;51.966;5.676;2023-12-20T03:05:19;9.1;76.7
78704;SHT31;68034;51.966;5.676;2023-12-20T03:07:48;9.0;77.1
78704;SHT31;68034;51.966;5.676;2023-12-20T03:10:17;8.9;77.0
78704;SHT31;68034;51.966;5.676;2023-12-20T03:12:46;8.9;77.2
78704;SHT31;68034;51.966;5.676;2023-12-20T03:15:14;8.8;77.7
78704;SHT31;68034;51.966;5.676;2023-12-20T03:17:43;8.8;77.9
78704;SHT31;68034;51.966;5.676;2023-12-20T03:20:12;8.8;78.2
78704;SHT31;68034;51.966;5.676;2023-12-20T03:22:43;8.7;78.4
78704;SHT31;68034;51.966;5.676;2023-12-20T03:25:13;8.7;78.3
78704;SHT31;68034;51.966;5.676;2023-12-20T03:27:42;8.7;78.3
78704;SHT31;68034;51.966;5.676;2023-12-20T03:30:11;8.7;78.6
78704;SHT31;68034;51.966;5.676;2023-12-20T03:32:40;8.7;79.0
78704;SHT31;68034;51.966;5.676;2023-12-20T03:35:09;8.6;79.0
78704;SHT31;68034;51.966;5.676;2023-12-20T03:37:40;8.6;78.8
78704;SHT31;68034;51.966;5.676;2023-12-20T03:40:09;8.6;78.8
78704;SHT31;68034;51.966;5.676;2023-12-20T03:42:38;8.6;78.9
78704;SHT31;68034;51.966;5.676;2023-12-20T03:45:07;8.6;78.9
78704;SHT31;68034;51.966;5.676;2023-12-20T03:47:36;8.6;79.1
78704;SHT31;68034;51.966;5.676;2023-12-20T03:50:05;8.6;78.9
78704;SHT31;68034;51.966;5.676;2023-12-20T03:52:34;8.6;79.0
78704;SHT31;68034;51.966;5.676;2023-12-20T03:55:03;8.6;78.9
78704;SHT31;68034;51.966;5.676;2023-12-20T03:57:31;8.6;79.0
78704;SHT31;68034;51.966;5.676;2023-12-20T04:00:00;8.6;79.0
78704;SHT31;68034;51.966;5.676;2023-12-20T04:02:30;8.6;79.1
78704;SHT31;68034;51.966;5.676;2023-12-20T04:04:58;8.6;78.8
78704;SHT31;68034;51.966;5.676;2023-12-20T04:07:27;8.6;78.4
78704;SHT31;68034;51.966;5.676;2023-12-20T04:09:58;8.6;78.4
78704;SHT31;68034;51.966;5.676;2023-12-20T04:12:29;8.7;79.1
78704;SHT31;68034;51.966;5.676;2023-12-20T04:15:04;8.8;79.1
78704;SHT31;68034;51.966;5.676;2023-12-20T04:17:36;9.0;78.6
78704;SHT31;68034;51.966;5.676;2023-12-20T04:20:06;9.0;77.8
78704;SHT31;68034;51.966;5.676;2023-12-20T04:22:34;9.1;77.4
78704;SHT31;68034;51.966;5.676;2023-12-20T04:25:03;9.1;76.8
78704;SHT31;68034;51.966;5.676;2023-12-20T04:27:32;9.1;76.7
78704;SHT31;68034;51.966;5.676;2023-12-20T04:30:00;9.1;76.5
78704;SHT31;68034;51.966;5.676;2023-12-20T04:32:30;9.1;76.7
78704;SHT31;68034;51.966;5.676;2023-12-20T04:34:58;9.1;77.1
78704;SHT31;68034;51.966;5.676;2023-12-20T04:37:27;9.1;77.0
78704;SHT31;68034;51.966;5.676;2023-12-20T04:39:56;9.1;77.1
78704;SHT31;68034;51.966;5.676;2023-12-20T04:42:24;9.1;77.1
78704;SHT31;68034;51.966;5.676;2023-12-20T04:44:53;9.1;77.3
78704;SHT31;68034;51.966;5.676;2023-12-20T04:47:22;9.1;77.5
78704;SHT31;68034;51.966;5.676;2023-12-20T04:49:50;9.1;77.3
78704;SHT31;68034;51.966;5.676;2023-12-20T04:52:19;9.1;77.4
78704;SHT31;68034;51.966;5.676;2023-12-20T04:54:47;9.1;77.5
78704;SHT31;68034;51.966;5.676;2023-12-20T04:57:18;9.1;77.2
78704;SHT31;68034;51.966;5.676;2023-12-20T04:59:46;9.1;77.2
78704;SHT31;68034;51.966;5.676;2023-12-20T05:02:15;9.1;77.2
78704;SHT31;68034;51.966;5.676;2023-12-20T05:04:44;9.1;76.9
78704;SHT31;68034;51.966;5.676;2023-12-20T05:07:12;9.1;76.7
78704;SHT31;68034;51.966;5.676;2023-12-20T05:09:41;9.1;77.1
78704;SHT31;68034;51.966;5.676;2023-12-20T05:12:10;9.1;77.1
78704;SHT31;68034;51.966;5.676;2023-12-20T05:14:39;9.1;77.0
78704;SHT31;68034;51.966;5.676;2023-12-20T05:17:07;9.1;76.7
78704;SHT31;68034;51.966;5.676;2023-12-20T05:19:36;9.1;76.7
78704;SHT31;68034;51.966;5.676;2023-12-20T05:22:05;9.1;76.9
78704;SHT31;68034;51.966;5.676;2023-12-20T05:24:33;9.2;76.9
78704;SHT31;68034;51.966;5.676;2023-12-20T05:27:02;9.2;76.7
78704;SHT31;68034;51.966;5.676;2023-12-20T05:29:30;9.2;76.6
78704;SHT31;68034;51.966;5.676;2023-12-20T05:32:02;9.2;76.6
78704;SHT31;68034;51.966;5.676;2023-12-20T05:34:31;9.2;76.8
78704;SHT31;68034;51.966;5.676;2023-12-20T05:37:00;9.2;76.9
78704;SHT31;68034;51.966;5.676;2023-12-20T05:39:31;9.2;76.9
78704;SHT31;68034;51.966;5.676;2023-12-20T05:41:59;9.2;76.8
78704;SHT31;68034;51.966;5.676;2023-12-20T05:44:28;9.2;76.8
78704;SHT31;68034;51.966;5.676;2023-12-20T05:46:57;9.2;76.2
78704;SHT31;68034;51.966;5.676;2023-12-20T05:49:25;9.2;76.3
78704;SHT31;68034;51.966;5.676;2023-12-20T05:51:54;9.2;76.5
78704;SHT31;68034;51.966;5.676;2023-12-20T05:54:22;9.2;76.3
78704;SHT31;68034;51.966;5.676;2023-12-20T05:56:53;9.2;76.4
78704;SHT31;68034;51.966;5.676;2023-12-20T05:59:22;9.2;76.6
78704;SHT31;68034;51.966;5.676;2023-12-20T06:01:50;9.3;76.6
78704;SHT31;68034;51.966;5.676;2023-12-20T06:04:19;9.3;76.4
78704;SHT31;68034;51.966;5.676;2023-12-20T06:06:48;9.4;76.5
78704;SHT31;68034;51.966;5.676;2023-12-20T06:09:16;9.5;75.9
78704;SHT31;68034;51.966;5.676;2023-12-20T06:11:48;9.6;75.4
78704;SHT31;68034;51.966;5.676;2023-12-20T06:14:17;9.7;75.3
78704;SHT31;68034;51.966;5.676;2023-12-20T06:16:51;9.8;74.5
78704;SHT31;68034;51.966;5.676;2023-12-20T06:19:20;10.0;74.1
78704;SHT31;68034;51.966;5.676;2023-12-20T06:21:51;10.1;73.8
78704;SHT31;68034;51.966;5.676;2023-12-20T06:24:25;10.2;73.2
78704;SHT31;68034;51.966;5.676;2023-12-20T06:27:02;10.3;72.6
78704;SHT31;68034;51.966;5.676;2023-12-20T06:29:33;10.4;72.1
78704;SHT31;68034;51.966;5.676;2023-12-20T06:32:02;10.5;71.4
78704;SHT31;68034;51.966;5.676;2023-12-20T06:34:30;10.6;70.6
78704;SHT31;68034;51.966;5.676;2023-12-20T06:36:59;10.5;69.8
78704;SHT31;68034;51.966;5.676;2023-12-20T06:39:28;10.5;70.3
78704;SHT31;68034;51.966;5.676;2023-12-20T06:41:57;10.4;70.5
78704;SHT31;68034;51.966;5.676;2023-12-20T06:44:26;10.3;70.4
78704;SHT31;68034;51.966;5.676;2023-12-20T06:46:54;10.2;70.9
78704;SHT31;68034;51.966;5.676;2023-12-20T06:49:23;10.1;70.8
78704;SHT31;68034;51.966;5.676;2023-12-20T06:51:52;10.1;71.2
78704;SHT31;68034;51.966;5.676;2023-12-20T06:54:20;10.0;71.5
78704;SHT31;68034;51.966;5.676;2023-12-20T06:56:49;9.9;71.6
78704;SHT31;68034;51.966;5.676;2023-12-20T06:59:18;9.9;72.0
78704;SHT31;68034;51.966;5.676;2023-12-20T07:01:49;9.8;72.0
78704;SHT31;68034;51.966;5.676;2023-12-20T07:04:19;9.7;72.2
78704;SHT31;68034;51.966;5.676;2023-12-20T07:06:48;9.7;72.9
78704;SHT31;68034;51.966;5.676;2023-12-20T07:09:18;9.6;73.1
78704;SHT31;68034;51.966;5.676;2023-12-20T07:11:47;9.6;73.4
78704;SHT31;68034;51.966;5.676;2023-12-20T07:14:15;9.6;73.3
78704;SHT31;68034;51.966;5.676;2023-12-20T07:16:44;9.5;73.8
78704;SHT31;68034;51.966;5.676;2023-12-20T07:19:13;9.5;73.8
78704;SHT31;68034;51.966;5.676;2023-12-20T07:21:42;9.5;74.0
78704;SHT31;68034;51.966;5.676;2023-12-20T07:24:14;9.5;74.1
78704;SHT31;68034;51.966;5.676;2023-12-20T07:26:43;9.5;74.1
78704;SHT31;68034;51.966;5.676;2023-12-20T07:29:14;9.5;73.9
78704;SHT31;68034;51.966;5.676;2023-12-20T07:31:42;9.5;74.2
78704;SHT31;68034;51.966;5.676;2023-12-20T07:34:11;9.4;74.2
78704;SHT31;68034;51.966;5.676;2023-12-20T07:36:40;9.4;74.3
78704;SHT31;68034;51.966;5.676;2023-12-20T07:39:08;9.4;74.2
78704;SHT31;68034;51.966;5.676;2023-12-20T07:41:37;9.4;74.5
78704;SHT31;68034;51.966;5.676;2023-12-20T07:44:08;9.4;74.5
78704;SHT31;68034;51.966;5.676;2023-12-20T07:46:37;9.4;74.7
78704;SHT31;68034;51.966;5.676;2023-12-20T07:49:06;9.4;74.7
78704;SHT31;68034;51.966;5.676;2023-12-20T07:51:35;9.4;74.7
78704;SHT31;68034;51.966;5.676;2023-12-20T07:54:03;9.4;74.8
78704;SHT31;68034;51.966;5.676;2023-12-20T07:56:34;9.3;74.9
78704;SHT31;68034;51.966;5.676;2023-12-20T07:59:03;9.3;75.1
78704;SHT31;68034;51.966;5.676;2023-12-20T08:01:31;9.3;75.0
78704;SHT31;68034;51.966;5.676;2023-12-20T08:04:00;9.4;75.0
78704;SHT31;68034;51.966;5.676;2023-12-20T08:06:29;9.4;75.1
78704;SHT31;68034;51.966;5.676;2023-12-20T08:08:57;9.4;75.1
78704;SHT31;68034;51.966;5.676;2023-12-20T08:11:26;9.4;74.9
78704;SHT31;68034;51.966;5.676;2023-12-20T08:13:54;9.4;74.8
78704;SHT31;68034;51.966;5.676;2023-12-20T08:16:23;9.4;74.7
78704;SHT31;68034;51.966;5.676;2023-12-20T08:18:52;9.4;74.6
78704;SHT31;68034;51.966;5.676;2023-12-20T08:21:20;9.5;75.1
78704;SHT31;68034;51.966;5.676;2023-12-20T08:23:49;9.6;74.9
78704;SHT31;68034;51.966;5.676;2023-12-20T08:26:22;9.8;73.8
78704;SHT31;68034;51.966;5.676;2023-12-20T08:28:51;9.9;73.2
78704;SHT31;68034;51.966;5.676;2023-12-20T08:31:20;9.9;72.8
78704;SHT31;68034;51.966;5.676;2023-12-20T08:33:49;9.9;72.5
78704;SHT31;68034;51.966;5.676;2023-12-20T08:36:20;9.9;72.4
78704;SHT31;68034;51.966;5.676;2023-12-20T08:38:50;9.9;72.5
78704;SHT31;68034;51.966;5.676;2023-12-20T08:41:19;9.9;72.6
78704;SHT31;68034;51.966;5.676;2023-12-20T08:43:48;9.9;72.5
78704;SHT31;68034;51.966;5.676;2023-12-20T08:46:17;9.9;72.4
78704;SHT31;68034;51.966;5.676;2023-12-20T08:48:46;9.9;72.8
78704;SHT31;68034;51.966;5.676;2023-12-20T08:51:15;9.9;72.9
78704;SHT31;68034;51.966;5.676;2023-12-20T08:53:43;9.9;72.7
78704;SHT31;68034;51.966;5.676;2023-12-20T08:56:14;9.9;72.9
78704;SHT31;68034;51.966;5.676;2023-12-20T08:58:45;9.9;73.0
78704;SHT31;68034;51.966;5.676;2023-12-20T09:01:14;9.9;73.0
78704;SHT31;68034;51.966;5.676;2023-12-20T09:03:44;9.9;73.1
78704;SHT31;68034;51.966;5.676;2023-12-20T09:06:13;9.8;73.2
78704;SHT31;68034;51.966;5.676;2023-12-20T09:08:42;9.8;73.8
78704;SHT31;68034;51.966;5.676;2023-12-20T09:11:11;9.8;74.3
78704;SHT31;68034;51.966;5.676;2023-12-20T09:13:40;9.8;74.5
78704;SHT31;68034;51.966;5.676;2023-12-20T09:16:09;9.7;74.7
78704;SHT31;68034;51.966;5.676;2023-12-20T09:18:39;9.7;74.9
78704;SHT31;68034;51.966;5.676;2023-12-20T09:21:08;9.7;75.2
78704;SHT31;68034;51.966;5.676;2023-12-20T09:23:36;9.6;75.5
78704;SHT31;68034;51.966;5.676;2023-12-20T09:26:05;9.6;75.8
78704;SHT31;68034;51.966;5.676;2023-12-20T09:28:34;9.6;76.1
78704;SHT31;68034;51.966;5.676;2023-12-20T09:31:03;9.5;76.3
78704;SHT31;68034;51.966;5.676;2023-12-20T09:33:33;9.5;76.5
78704;SHT31;68034;51.966;5.676;2023-12-20T09:36:02;9.5;76.7
78704;SHT31;68034;51.966;5.676;2023-12-20T09:38:31;9.5;76.8
78704;SHT31;68034;51.966;5.676;2023-12-20T09:40:59;9.5;77.2
78704;SHT31;68034;51.966;5.676;2023-12-20T09:43:30;9.4;77.4
78704;SHT31;68034;51.966;5.676;2023-12-20T09:46:00;9.4;77.3
78704;SHT31;68034;51.966;5.676;2023-12-20T09:48:31;9.4;77.4
78704;SHT31;68034;51.966;5.676;2023-12-20T09:51:01;9.4;77.5
78704;SHT31;68034;51.966;5.676;2023-12-20T09:53:33;9.4;77.4
78704;SHT31;68034;51.966;5.676;2023-12-20T09:56:06;9.4;77.6
78704;SHT31;68034;51.966;5.676;2023-12-20T09:58:38;9.4;77.5
78704;SHT31;68034;51.966;5.676;2023-12-20T10:01:08;9.4;77.5
78704;SHT31;68034;51.966;5.676;2023-12-20T10:03:39;9.4;77.7
78704;SHT31;68034;51.966;5.676;2023-12-20T10:06:10;9.4;77.7
78704;SHT31;68034;51.966;5.676;2023-12-20T10:08:39;9.4;77.8
78704;SHT31;68034;51.966;5.676;2023-12-20T10:11:07;9.4;77.9
78704;SHT31;68034;51.966;5.676;2023-12-20T10:13:39;9.4;78.0
78704;SHT31;68034;51.966;5.676;2023-12-20T10:16:07;9.4;78.1
78704;SHT31;68034;51.966;5.676;2023-12-20T10:18:36;9.4;78.1
78704;SHT31;68034;51.966;5.676;2023-12-20T10:21:06;9.5;78.1
78704;SHT31;68034;51.966;5.676;2023-12-20T10:23:37;9.5;78.0
78704;SHT31;68034;51.966;5.676;2023-12-20T10:26:10;9.6;78.2
78704;SHT31;68034;51.966;5.676;2023-12-20T10:29:00;9.8;78.2
78704;SHT31;68034;51.966;5.676;2023-12-20T10:31:34;10.0;77.1
78704;SHT31;68034;51.966;5.676;2023-12-20T10:34:03;10.1;76.3
78704;SHT31;68034;51.966;5.676;2023-12-20T10:36:33;10.1;75.7
78704;SHT31;68034;51.966;5.676;2023-12-20T10:39:02;10.2;75.7
78704;SHT31;68034;51.966;5.676;2023-12-20T10:41:32;10.2;75.7
78704;SHT31;68034;51.966;5.676;2023-12-20T10:44:06;10.2;75.8
78704;SHT31;68034;51.966;5.676;2023-12-20T10:46:40;10.2;75.4
78704;SHT31;68034;51.966;5.676;2023-12-20T10:49:16;10.2;75.4
78704;SHT31;68034;51.966;5.676;2023-12-20T10:51:47;10.2;75.5
78704;SHT31;68034;51.966;5.676;2023-12-20T10:54:20;10.2;75.6
78704;SHT31;68034;51.966;5.676;2023-12-20T10:56:52;10.2;75.6
78704;SHT31;68034;51.966;5.676;2023-12-20T10:59:23;10.2;75.5
78704;SHT31;68034;51.966;5.676;2023-12-20T11:01:54;10.2;75.8
78704;SHT31;68034;51.966;5.676;2023-12-20T11:04:41;10.2;75.7
78704;SHT31;68034;51.966;5.676;2023-12-20T11:07:12;10.2;75.7
78704;SHT31;68034;51.966;5.676;2023-12-20T11:09:54;10.2;75.6
78704;SHT31;68034;51.966;5.676;2023-12-20T11:12:35;10.3;75.6
78704;SHT31;68034;51.966;5.676;2023-12-20T11:15:06;10.3;75.5
78704;SHT31;68034;51.966;5.676;2023-12-20T11:17:41;10.3;75.5
78704;SHT31;68034;51.966;5.676;2023-12-20T11:20:13;10.3;75.6
78704;SHT31;68034;51.966;5.676;2023-12-20T11:22:53;10.3;75.4
78704;SHT31;68034;51.966;5.676;2023-12-20T11:25:22;10.4;75.5
78704;SHT31;68034;51.966;5.676;2023-12-20T11:28:09;10.4;75.5
78704;SHT31;68034;51.966;5.676;2023-12-20T11:30:50;10.4;75.2
78704;SHT31;68034;51.966;5.676;2023-12-20T11:33:21;10.4;75.2
78704;SHT31;68034;51.966;5.676;2023-12-20T11:35:52;10.5;74.7
78704;SHT31;68034;51.966;5.676;2023-12-20T11:38:24;10.5;74.7
78704;SHT31;68034;51.966;5.676;2023-12-20T11:40:54;10.5;74.6
78704;SHT31;68034;51.966;5.676;2023-12-20T11:43:36;10.5;74.2
78704;SHT31;68034;51.966;5.676;2023-12-20T11:46:05;10.6;74.1
78704;SHT31;68034;51.966;5.676;2023-12-20T11:48:37;10.6;74.3
78704;SHT31;68034;51.966;5.676;2023-12-20T11:51:11;10.6;74.7
78704;SHT31;68034;51.966;5.676;2023-12-20T11:53:40;10.7;75.0
78704;SHT31;68034;51.966;5.676;2023-12-20T11:56:10;10.7;73.8
78704;SHT31;68034;51.966;5.676;2023-12-20T11:58:39;10.8;72.9
78704;SHT31;68034;51.966;5.676;2023-12-20T12:01:08;10.8;72.9
78704;SHT31;68034;51.966;5.676;2023-12-20T12:03:37;10.9;72.7
78704;SHT31;68034;51.966;5.676;2023-12-20T12:06:06;10.9;72.8
78704;SHT31;68034;51.966;5.676;2023-12-20T12:08:35;10.9;72.5
78704;SHT31;68034;51.966;5.676;2023-12-20T12:11:05;10.9;72.1
78704;SHT31;68034;51.966;5.676;2023-12-20T12:13:34;11.0;72.6
78704;SHT31;68034;51.966;5.676;2023-12-20T12:16:03;11.0;72.9
78704;SHT31;68034;51.966;5.676;2023-12-20T12:18:32;11.1;72.7
78704;SHT31;68034;51.966;5.676;2023-12-20T12:21:02;11.1;72.2
78704;SHT31;68034;51.966;5.676;2023-12-20T12:23:31;11.1;72.1
78704;SHT31;68034;51.966;5.676;2023-12-20T12:26:01;11.2;72.0
78704;SHT31;68034;51.966;5.676;2023-12-20T12:28:34;11.2;72.3
78704;SHT31;68034;51.966;5.676;2023-12-20T12:31:07;11.2;72.0
78704;SHT31;68034;51.966;5.676;2023-12-20T12:33:43;11.4;71.5
78704;SHT31;68034;51.966;5.676;2023-12-20T12:36:21;11.6;71.0
78704;SHT31;68034;51.966;5.676;2023-12-20T12:38:56;11.7;70.4
78704;SHT31;68034;51.966;5.676;2023-12-20T12:41:25;11.7;70.2
78704;SHT31;68034;51.966;5.676;2023-12-20T12:43:54;11.7;69.9
78704;SHT31;68034;51.966;5.676;2023-12-20T12:46:22;11.7;70.1
78704;SHT31;68034;51.966;5.676;2023-12-20T12:48:51;11.7;70.1
78704;SHT31;68034;51.966;5.676;2023-12-20T12:51:20;11.6;71.0
78704;SHT31;68034;51.966;5.676;2023-12-20T12:53:48;11.6;71.2
78704;SHT31;68034;51.966;5.676;2023-12-20T12:56:19;11.5;72.1
78704;SHT31;68034;51.966;5.676;2023-12-20T12:58:48;11.5;72.3
78704;SHT31;68034;51.966;5.676;2023-12-20T13:01:17;11.4;72.0
78704;SHT31;68034;51.966;5.676;2023-12-20T13:03:46;11.4;72.2
78704;SHT31;68034;51.966;5.676;2023-12-20T13:06:15;11.4;72.4
78704;SHT31;68034;51.966;5.676;2023-12-20T13:08:44;11.3;72.2
78704;SHT31;68034;51.966;5.676;2023-12-20T13:11:13;11.3;72.7
78704;SHT31;68034;51.966;5.676;2023-12-20T13:13:41;11.3;72.7
78704;SHT31;68034;51.966;5.676;2023-12-20T13:16:12;11.3;72.5
78704;SHT31;68034;51.966;5.676;2023-12-20T13:18:41;11.2;72.5
78704;SHT31;68034;51.966;5.676;2023-12-20T13:21:10;11.2;72.2
78704;SHT31;68034;51.966;5.676;2023-12-20T13:23:39;11.2;72.2
78704;SHT31;68034;51.966;5.676;2023-12-20T13:26:07;11.2;72.0
78704;SHT31;68034;51.966;5.676;2023-12-20T13:28:36;11.2;71.8
78704;SHT31;68034;51.966;5.676;2023-12-20T13:31:05;11.2;72.0
78704;SHT31;68034;51.966;5.676;2023-12-20T13:33:33;11.2;71.9
78704;SHT31;68034;51.966;5.676;2023-12-20T13:36:02;11.2;72.1
78704;SHT31;68034;51.966;5.676;2023-12-20T13:38:31;11.2;71.9
78704;SHT31;68034;51.966;5.676;2023-12-20T13:41:00;11.2;71.9
78704;SHT31;68034;51.966;5.676;2023-12-20T13:43:28;11.2;71.6
78704;SHT31;68034;51.966;5.676;2023-12-20T13:45:59;11.2;71.4
78704;SHT31;68034;51.966;5.676;2023-12-20T13:48:27;11.2;71.9
78704;SHT31;68034;51.966;5.676;2023-12-20T13:50:56;11.2;72.0
78704;SHT31;68034;51.966;5.676;2023-12-20T13:53:24;11.2;71.9
78704;SHT31;68034;51.966;5.676;2023-12-20T13:55:53;11.2;71.6
78704;SHT31;68034;51.966;5.676;2023-12-20T13:58:22;11.2;71.6
78704;SHT31;68034;51.966;5.676;2023-12-20T14:00:50;11.2;71.5
78704;SHT31;68034;51.966;5.676;2023-12-20T14:03:20;11.2;71.9
78704;SHT31;68034;51.966;5.676;2023-12-20T14:05:48;11.2;71.2
78704;SHT31;68034;51.966;5.676;2023-12-20T14:08:17;11.2;71.7
78704;SHT31;68034;51.966;5.676;2023-12-20T14:10:46;11.2;71.9
78704;SHT31;68034;51.966;5.676;2023-12-20T14:13:15;11.2;71.6
78704;SHT31;68034;51.966;5.676;2023-12-20T14:15:43;11.2;71.2
78704;SHT31;68034;51.966;5.676;2023-12-20T14:18:13;11.2;71.4
78704;SHT31;68034;51.966;5.676;2023-12-20T14:20:41;11.2;71.0
78704;SHT31;68034;51.966;5.676;2023-12-20T14:23:13;11.2;71.2
78704;SHT31;68034;51.966;5.676;2023-12-20T14:25:42;11.2;71.2
78704;SHT31;68034;51.966;5.676;2023-12-20T14:28:11;11.2;71.3
78704;SHT31;68034;51.966;5.676;2023-12-20T14:30:40;11.2;71.4
78704;SHT31;68034;51.966;5.676;2023-12-20T14:33:09;11.2;71.5
78704;SHT31;68034;51.966;5.676;2023-12-20T14:35:38;11.2;72.0
78704;SHT31;68034;51.966;5.676;2023-12-20T14:38:11;11.4;71.7
78704;SHT31;68034;51.966;5.676;2023-12-20T14:40:50;11.5;70.7
78704;SHT31;68034;51.966;5.676;2023-12-20T14:43:19;11.6;70.2
78704;SHT31;68034;51.966;5.676;2023-12-20T14:45:48;11.6;70.0
78704;SHT31;68034;51.966;5.676;2023-12-20T14:48:18;11.6;69.9
78704;SHT31;68034;51.966;5.676;2023-12-20T14:50:47;11.7;69.7
78704;SHT31;68034;51.966;5.676;2023-12-20T14:53:19;11.6;69.8
78704;SHT31;68034;51.966;5.676;2023-12-20T14:55:50;11.6;69.6
78704;SHT31;68034;51.966;5.676;2023-12-20T14:58:19;11.6;69.9
78704;SHT31;68034;51.966;5.676;2023-12-20T15:00:48;11.6;69.7
78704;SHT31;68034;51.966;5.676;2023-12-20T15:03:16;11.6;69.7
78704;SHT31;68034;51.966;5.676;2023-12-20T15:05:45;11.5;69.9
78704;SHT31;68034;51.966;5.676;2023-12-20T15:08:14;11.5;69.6
78704;SHT31;68034;51.966;5.676;2023-12-20T15:10:45;11.5;69.9
78704;SHT31;68034;51.966;5.676;2023-12-20T15:13:13;11.5;70.2
78704;SHT31;68034;51.966;5.676;2023-12-20T15:15:42;11.4;70.4
78704;SHT31;68034;51.966;5.676;2023-12-20T15:18:11;11.4;70.7
78704;SHT31;68034;51.966;5.676;2023-12-20T15:20:39;11.4;70.9
78704;SHT31;68034;51.966;5.676;2023-12-20T15:23:10;11.3;70.8
78704;SHT31;68034;51.966;5.676;2023-12-20T15:25:39;11.3;70.9
78704;SHT31;68034;51.966;5.676;2023-12-20T15:28:07;11.3;71.2
78704;SHT31;68034;51.966;5.676;2023-12-20T15:30:37;11.2;71.5
78704;SHT31;68034;51.966;5.676;2023-12-20T15:33:06;11.2;71.5
78704;SHT31;68034;51.966;5.676;2023-12-20T15:35:35;11.2;71.8
78704;SHT31;68034;51.966;5.676;2023-12-20T15:38:05;11.1;72.1
78704;SHT31;68034;51.966;5.676;2023-12-20T15:40:33;11.1;72.6
78704;SHT31;68034;51.966;5.676;2023-12-20T15:43:02;11.1;72.9
78704;SHT31;68034;51.966;5.676;2023-12-20T15:45:31;11.0;73.4
78704;SHT31;68034;51.966;5.676;2023-12-20T15:48:00;11.0;73.6
78704;SHT31;68034;51.966;5.676;2023-12-20T15:50:30;10.9;73.9
78704;SHT31;68034;51.966;5.676;2023-12-20T15:52:58;10.9;74.3
78704;SHT31;68034;51.966;5.676;2023-12-20T15:55:28;10.9;74.5
78704;SHT31;68034;51.966;5.676;2023-12-20T15:57:56;10.8;74.9
78704;SHT31;68034;51.966;5.676;2023-12-20T16:00:27;10.8;75.0
78704;SHT31;68034;51.966;5.676;2023-12-20T16:02:57;10.7;75.3
78704;SHT31;68034;51.966;5.676;2023-12-20T16:05:26;10.7;75.8
78704;SHT31;68034;51.966;5.676;2023-12-20T16:07:54;10.7;75.8
78704;SHT31;68034;51.966;5.676;2023-12-20T16:10:25;10.6;76.1
78704;SHT31;68034;51.966;5.676;2023-12-20T16:12:54;10.6;76.4
78704;SHT31;68034;51.966;5.676;2023-12-20T16:15:23;10.6;76.5
78704;SHT31;68034;51.966;5.676;2023-12-20T16:17:52;10.6;76.7
78704;SHT31;68034;51.966;5.676;2023-12-20T16:20:20;10.5;76.8
78704;SHT31;68034;51.966;5.676;2023-12-20T16:22:49;10.5;77.0
78704;SHT31;68034;51.966;5.676;2023-12-20T16:25:18;10.5;77.1
78704;SHT31;68034;51.966;5.676;2023-12-20T16:27:47;10.5;77.2